Time;durP1;ratioP1;P1;durP2;ratioP2;P2;SDS_P1;SDS_P2;PMS_P1;PMS_P2;Temp;Humidity;BMP_temperature;BMP_pressure;BME280_temperature;BME280_humidity;BME280_pressure;Samples;Min_cycle;Max_cycle;Signal;HPM_P1;HPM_P2
2023/04/22 00:02:13;;;;;;;8.53;7.73;;;;;;;14.81;97.21;99234.25;5055075;28;20250;-68
2023/04/22 00:04:40;;;;;;;8.90;8.20;;;;;;;14.77;97.66;99239.25;5071215;28;20196;-69
2023/04/22 00:07:07;;;;;;;9.27;8.50;;;;;;;14.82;96.95;99242.06;5075584;28;20196;-68
2023/04/22 00:09:35;;;;;;;9.27;8.53;;;;;;;14.72;96.72;99239.13;5074731;28;20196;-68
2023/04/22 00:12:02;;;;;;;10.40;9.40;;;;;;;14.68;96.47;99243.31;5062493;28;20224;-69
2023/04/22 00:14:29;;;;;;;11.53;10.40;;;;;;;14.76;97.74;99244.84;5054797;28;20681;-68
2023/04/22 00:16:56;;;;;;;13.10;11.90;;;;;;;14.79;97.10;99231.81;5054587;28;20216;-69
2023/04/22 00:19:23;;;;;;;12.77;11.67;;;;;;;14.78;96.00;99235.53;5054719;28;20728;-69
2023/04/22 00:21:49;;;;;;;14.77;13.43;;;;;;;14.82;96.57;99231.34;5054962;28;20199;-69
2023/04/22 00:24:16;;;;;;;14.00;12.77;;;;;;;14.79;96.44;99231.00;5063195;28;20559;-68
2023/04/22 00:26:44;;;;;;;17.03;14.97;;;;;;;14.80;96.91;99227.28;5074095;28;20192;-67
2023/04/22 00:29:11;;;;;;;16.17;14.57;;;;;;;14.77;96.12;99231.25;5074793;28;20188;-68
2023/04/22 00:31:37;;;;;;;16.57;14.87;;;;;;;14.67;95.27;99230.16;5074694;28;20195;-69
2023/04/22 00:34:04;;;;;;;19.63;16.93;;;;;;;14.55;95.19;99224.75;5074728;28;20196;-68
2023/04/22 00:36:31;;;;;;;21.07;15.60;;;;;;;14.55;95.50;99224.75;5074216;28;20701;-68
2023/04/22 00:38:58;;;;;;;17.37;15.50;;;;;;;14.58;96.70;99227.00;5074464;28;20598;-68
2023/04/22 00:41:25;;;;;;;17.90;15.83;;;;;;;14.56;96.05;99226.41;5069118;28;20262;-68
2023/04/22 00:43:53;;;;;;;18.80;16.93;;;;;;;14.41;95.72;99220.66;5054442;28;20188;-68
2023/04/22 00:46:20;;;;;;;18.97;17.07;;;;;;;14.41;96.13;99222.50;5053815;28;20193;-68
2023/04/22 00:48:47;;;;;;;22.30;18.13;;;;;;;14.39;96.31;99225.44;5054509;28;20378;-68
2023/04/22 00:51:14;;;;;;;19.43;17.37;;;;;;;14.49;96.10;99236.38;5055343;28;20201;-68
2023/04/22 00:53:40;;;;;;;20.93;17.10;;;;;;;14.52;95.41;99232.44;5054104;28;20247;-69
2023/04/22 00:56:07;;;;;;;19.40;17.53;;;;;;;14.58;95.49;99243.03;5053838;28;20279;-69
2023/04/22 00:58:34;;;;;;;19.00;17.03;;;;;;;14.62;94.87;99238.84;5066966;28;20551;-67
2023/04/22 01:01:02;;;;;;;18.53;16.60;;;;;;;14.67;95.19;99243.53;5073858;28;20626;-67
2023/04/22 01:03:31;;;;;;;18.57;15.53;;;;;;;14.62;95.48;99246.88;5074182;28;20196;-67
2023/04/22 01:05:58;;;;;;;18.20;16.40;;;;;;;14.54;95.16;99249.88;5067778;28;20199;-67
2023/04/22 01:08:29;;;;;;;19.20;16.80;;;;;;;14.54;95.90;99249.06;5054153;28;20197;-67
2023/04/22 01:10:56;;;;;;;18.67;15.90;;;;;;;14.59;95.60;99252.66;5053999;28;20267;-67
2023/04/22 01:13:23;;;;;;;18.83;16.00;;;;;;;14.54;95.46;99247.19;5058055;28;20192;-67
2023/04/22 01:15:50;;;;;;;17.20;15.50;;;;;;;14.52;95.51;99245.78;5073490;28;20192;-68
2023/04/22 01:18:18;;;;;;;17.13;15.33;;;;;;;14.52;94.89;99238.59;5073979;28;20223;-67
2023/04/22 01:20:45;;;;;;;15.87;14.20;;;;;;;14.43;94.86;99234.63;5073440;28;20196;-67
2023/04/22 01:23:18;;;;;;;17.37;13.73;;;;;;;14.49;96.14;99241.72;5073216;28;20742;-67
2023/04/22 01:25:46;;;;;;;15.37;13.80;;;;;;;14.45;95.93;99235.19;5073716;28;20250;-68
2023/04/22 01:28:13;;;;;;;16.57;14.97;;;;;;;14.41;96.03;99231.34;5073777;28;20203;-67
2023/04/22 01:30:40;;;;;;;15.20;13.67;;;;;;;14.32;96.45;99222.03;5071269;28;20222;-68
2023/04/22 01:33:06;;;;;;;16.33;14.40;;;;;;;14.34;96.76;99241.31;5073328;28;20188;-68
2023/04/22 01:35:35;;;;;;;14.53;13.13;;;;;;;14.34;96.23;99237.84;5073220;28;20723;-68
2023/04/22 01:38:02;;;;;;;14.97;13.63;;;;;;;14.39;96.50;99232.63;5073493;28;20323;-68
2023/04/22 01:40:31;;;;;;;14.60;13.17;;;;;;;14.38;96.39;99244.34;5073459;28;20265;-69
2023/04/22 01:42:59;;;;;;;13.80;12.57;;;;;;;14.35;96.46;99245.63;5073091;28;20666;-68
2023/04/22 01:45:26;;;;;;;12.97;11.87;;;;;;;14.28;96.57;99236.88;5070173;28;20705;-69
2023/04/22 01:47:53;;;;;;;14.83;12.83;;;;;;;14.22;96.91;99235.09;5053255;28;20204;-68
2023/04/22 01:50:20;;;;;;;13.30;11.77;;;;;;;14.28;97.61;99236.06;5053251;28;20192;-68
2023/04/22 01:52:46;;;;;;;15.10;11.93;;;;;;;14.34;96.69;99237.84;5053263;28;20204;-68
2023/04/22 01:55:13;;;;;;;14.63;13.13;;;;;;;14.26;96.40;99225.59;5053243;28;20196;-68
2023/04/22 01:57:41;;;;;;;12.70;11.60;;;;;;;14.17;96.79;99226.91;5051714;28;20271;-68
2023/04/22 02:00:09;;;;;;;13.20;11.87;;;;;;;14.19;97.28;99226.69;5052966;28;20200;-68
2023/04/22 02:02:36;;;;;;;12.23;11.00;;;;;;;14.18;96.57;99228.53;5064863;28;20253;-68
2023/04/22 02:05:03;;;;;;;11.33;10.37;;;;;;;14.17;96.55;99220.78;5055184;28;20205;-68
2023/04/22 02:07:30;;;;;;;12.30;10.73;;;;;;;14.17;96.73;99226.91;5052588;28;20741;-68
2023/04/22 02:09:56;;;;;;;13.33;10.50;;;;;;;14.08;97.41;99220.25;5052955;28;20192;-68
2023/04/22 02:12:23;;;;;;;12.33;10.63;;;;;;;14.00;97.18;99215.22;5058146;28;20188;-68
2023/04/22 02:14:51;;;;;;;14.20;10.63;;;;;;;14.02;98.70;99223.84;5072442;28;20203;-68
2023/04/22 02:17:18;;;;;;;12.23;11.17;;;;;;;14.06;98.51;99214.34;5072575;28;20223;-68
2023/04/22 02:19:44;;;;;;;11.40;10.30;;;;;;;14.02;97.90;99221.16;5072687;28;20271;-68
2023/04/22 02:22:11;;;;;;;12.20;11.10;;;;;;;14.00;98.20;99215.22;5071589;28;20202;-67
2023/04/22 02:24:38;;;;;;;11.53;10.33;;;;;;;13.89;98.27;99213.28;5072402;28;20265;-69
2023/04/22 02:27:05;;;;;;;12.10;10.97;;;;;;;13.91;99.07;99221.91;5060191;28;20577;-68
2023/04/22 02:29:40;;;;;;;13.23;11.53;;;;;;;13.94;98.47;99220.66;5089558;28;20555;-68
2023/04/22 02:32:07;;;;;;;11.33;10.50;;;;;;;13.99;98.53;99223.44;5089213;28;20249;-68
2023/04/22 02:34:33;;;;;;;11.87;10.77;;;;;;;13.99;98.24;99218.94;5089300;28;20672;-68
2023/04/22 02:37:00;;;;;;;12.20;11.10;;;;;;;13.94;98.04;99223.31;5089447;28;20248;-68
2023/04/22 02:39:27;;;;;;;11.73;10.63;;;;;;;13.93;97.34;99229.72;5089526;28;20252;-68
2023/04/22 02:41:53;;;;;;;11.80;10.90;;;;;;;13.88;98.08;99224.22;5088472;28;20724;-68
2023/04/22 02:44:20;;;;;;;13.53;12.37;;;;;;;13.83;98.65;99219.53;5089451;28;20250;-68
2023/04/22 02:46:48;;;;;;;12.70;11.53;;;;;;;13.75;98.30;99221.69;5089300;28;20191;-68
2023/04/22 02:49:15;;;;;;;17.60;12.30;;;;;;;13.64;97.63;99225.91;5088955;28;20219;-68
2023/04/22 02:51:41;;;;;;;12.80;11.90;;;;;;;13.51;98.48;99226.06;5088242;28;20261;-67
2023/04/22 02:54:08;;;;;;;12.93;11.80;;;;;;;13.43;99.95;99234.34;5088895;28;20191;-68
2023/04/22 02:56:35;;;;;;;13.73;12.43;;;;;;;13.43;100.00;99233.53;5089159;28;20245;-68
2023/04/22 02:59:01;;;;;;;14.03;12.83;;;;;;;13.33;98.53;99235.88;5088603;28;20269;-68
2023/04/22 03:01:28;;;;;;;14.47;13.00;;;;;;;13.23;98.89;99235.59;5088686;28;20320;-69
2023/04/22 03:03:56;;;;;;;17.33;14.27;;;;;;;13.18;98.17;99233.56;5088939;28;20196;-68
2023/04/22 03:06:23;;;;;;;21.30;14.33;;;;;;;13.21;98.87;99241.13;5089185;28;20191;-68
2023/04/22 03:08:50;;;;;;;15.43;13.60;;;;;;;13.23;98.89;99232.91;5088712;28;20216;-68
2023/04/22 03:11:16;;;;;;;14.03;12.73;;;;;;;13.23;98.46;99238.25;5088628;28;20187;-67
2023/04/22 03:13:43;;;;;;;14.03;12.90;;;;;;;13.25;98.43;99231.66;5088010;28;20202;-68
2023/04/22 03:16:10;;;;;;;13.30;12.17;;;;;;;13.28;98.27;99231.19;5088852;28;20252;-68
2023/04/22 03:18:36;;;;;;;14.70;13.40;;;;;;;13.29;97.49;99232.84;5088225;28;20257;-68
2023/04/22 03:21:06;;;;;;;13.93;12.63;;;;;;;13.29;96.99;99232.03;5088446;28;20230;-69
2023/04/22 03:23:32;;;;;;;16.40;12.37;;;;;;;13.26;96.68;99233.28;5088257;28;20191;-69
2023/04/22 03:25:59;;;;;;;17.73;13.10;;;;;;;13.22;96.20;99232.09;5088330;28;20542;-69
2023/04/22 03:28:26;;;;;;;15.30;12.43;;;;;;;13.14;97.40;99229.69;5088256;28;20731;-69
2023/04/22 03:30:52;;;;;;;15.63;14.20;;;;;;;13.14;98.34;99224.38;5087728;28;20195;-69
2023/04/22 03:33:19;;;;;;;15.03;13.53;;;;;;;13.09;97.50;99234.88;5088135;28;20192;-69
2023/04/22 03:35:47;;;;;;;14.37;13.07;;;;;;;12.97;96.74;99233.94;5088102;28;20545;-69
2023/04/22 03:38:16;;;;;;;14.20;12.60;;;;;;;12.89;96.54;99239.53;5088349;28;20320;-69
2023/04/22 03:40:42;;;;;;;13.23;12.17;;;;;;;12.85;96.28;99240.97;5076427;28;20192;-69
2023/04/22 03:43:09;;;;;;;18.73;15.47;;;;;;;12.85;96.34;99246.31;5073643;28;20199;-69
2023/04/22 03:45:36;;;;;;;13.27;11.97;;;;;;;12.86;96.90;99242.59;5074642;28;20253;-68
2023/04/22 03:48:03;;;;;;;14.77;13.17;;;;;;;12.83;96.09;99253.69;5074179;28;20647;-68
2023/04/22 03:50:30;;;;;;;15.73;11.67;;;;;;;12.77;95.63;99251.91;5074786;28;20203;-68
2023/04/22 03:52:56;;;;;;;18.00;13.27;;;;;;;12.74;96.08;99262.19;5074252;28;20663;-69
2023/04/22 03:55:24;;;;;;;14.70;12.53;;;;;;;12.78;96.47;99261.53;5074658;28;20276;-68
2023/04/22 03:57:51;;;;;;;19.00;13.27;;;;;;;12.82;97.93;99265.41;5073588;28;20208;-68
2023/04/22 04:00:18;;;;;;;18.00;13.47;;;;;;;12.83;97.50;99268.88;5074170;28;20254;-68
2023/04/22 04:02:44;;;;;;;16.00;12.87;;;;;;;12.87;97.74;99268.22;5074167;28;20254;-68
2023/04/22 04:05:11;;;;;;;19.00;13.10;;;;;;;13.08;97.97;99273.25;5074164;28;20622;-68
2023/04/22 04:07:38;;;;;;;19.70;14.30;;;;;;;13.17;95.28;99279.94;5074277;28;20253;-69
2023/04/22 04:10:06;;;;;;;16.67;13.43;;;;;;;13.26;95.18;99286.63;5074382;28;20284;-68
2023/04/22 04:12:34;;;;;;;22.87;13.00;;;;;;;13.34;95.58;99283.69;5073814;28;20199;-68
2023/04/22 04:15:00;;;;;;;26.23;13.53;;;;;;;13.56;94.88;99282.25;5073681;28;20198;-68
2023/04/22 04:17:27;;;;;;;20.73;13.13;;;;;;;13.90;93.79;99281.69;5072963;28;20221;-68
2023/04/22 04:19:54;;;;;;;17.67;12.60;;;;;;;14.24;91.80;99290.97;5074150;28;20228;-68
2023/04/22 04:22:21;;;;;;;16.50;13.60;;;;;;;14.28;90.27;99293.00;5074005;28;20249;-69
2023/04/22 04:24:48;;;;;;;19.27;15.40;;;;;;;14.30;90.04;99298.91;5073684;28;20277;-68
2023/04/22 04:27:15;;;;;;;24.90;16.37;;;;;;;14.59;90.54;99300.78;5072990;28;20195;-67
2023/04/22 04:29:43;;;;;;;19.23;13.03;;;;;;;15.28;92.42;99297.50;5072621;28;20866;-66
2023/04/22 04:32:10;;;;;;;19.73;11.10;;;;;;;16.10;89.03;99293.78;5072985;28;20196;-67
2023/04/22 04:34:37;;;;;;;23.13;12.10;;;;;;;16.82;85.73;99293.91;5071722;28;20249;-69
2023/04/22 04:37:03;;;;;;;23.90;14.93;;;;;;;17.28;78.28;99317.00;5072257;28;20274;-70
2023/04/22 04:39:31;;;;;;;19.40;13.60;;;;;;;17.67;78.55;99316.03;5072723;28;20734;-60
2023/04/22 04:41:59;;;;;;;19.43;14.93;;;;;;;18.04;73.19;99325.19;5072810;28;20196;-61
2023/04/22 04:44:26;;;;;;;16.60;13.43;;;;;;;18.49;72.96;99333.88;5072944;28;20576;-61
2023/04/22 04:46:54;;;;;;;14.13;12.63;;;;;;;19.13;71.50;99338.34;5072638;28;20195;-60
2023/04/22 04:49:21;;;;;;;11.93;10.47;;;;;;;20.01;68.28;99341.25;5072547;28;20227;-60
2023/04/22 04:51:48;;;;;;;10.97;8.40;;;;;;;20.92;64.99;99345.22;5068725;28;20189;-60
2023/04/22 04:54:15;;;;;;;9.33;8.43;;;;;;;21.19;63.03;99332.31;5071328;28;20195;-60
2023/04/22 04:56:42;;;;;;;11.33;8.67;;;;;;;21.16;59.67;99341.78;5071948;28;20626;-61
2023/04/22 04:59:08;;;;;;;11.57;8.00;;;;;;;21.59;58.57;99341.25;5072139;28;20668;-60
2023/04/22 05:01:35;;;;;;;8.50;7.70;;;;;;;21.53;57.99;99341.53;5073105;28;20191;-60
2023/04/22 05:04:03;;;;;;;6.47;6.03;;;;;;;21.86;62.23;99327.47;5072914;28;20718;-61
2023/04/22 05:06:31;;;;;;;9.73;8.27;;;;;;;21.82;57.03;99338.03;5072939;28;20257;-61
2023/04/22 05:08:58;;;;;;;7.17;6.50;;;;;;;22.37;54.81;99339.81;5065680;28;20259;-62
2023/04/22 05:11:25;;;;;;;13.50;12.20;;;;;;;22.78;54.16;99344.78;5063078;28;20655;-62
2023/04/22 05:13:52;;;;;;;6.93;6.43;;;;;;;23.11;51.73;99346.75;5073217;28;20243;-73
2023/04/22 05:16:18;;;;;;;6.80;6.40;;;;;;;23.22;51.70;99353.78;5070374;28;20196;-71
2023/04/22 05:18:45;;;;;;;10.37;6.60;;;;;;;23.60;52.30;99358.38;5069842;28;20200;-72
2023/04/22 05:21:14;;;;;;;6.27;5.30;;;;;;;23.13;52.03;99333.75;5072044;28;20199;-71
2023/04/22 05:23:41;;;;;;;7.97;6.00;;;;;;;23.05;54.24;99342.47;5072133;28;20234;-71
2023/04/22 05:26:08;;;;;;;19.23;5.83;;;;;;;23.09;56.09;99335.41;5071209;28;20664;-70
2023/04/22 05:28:34;;;;;;;8.30;4.60;;;;;;;24.04;53.55;99339.28;5072714;28;20231;-69
2023/04/22 05:31:01;;;;;;;8.60;5.87;;;;;;;25.01;50.61;99346.81;5072583;28;20269;-71
2023/04/22 05:33:28;;;;;;;7.13;6.63;;;;;;;25.02;45.46;99360.13;5072713;28;20205;-71
2023/04/22 05:35:55;;;;;;;6.50;6.00;;;;;;;24.94;45.64;99362.69;5071054;28;20665;-68
2023/04/22 05:38:23;;;;;;;12.93;6.20;;;;;;;25.10;48.20;99347.78;5072641;28;20200;-71
2023/04/22 05:40:50;;;;;;;6.20;5.80;;;;;;;24.46;48.60;99361.91;5071659;28;20194;-72
2023/04/22 05:43:16;;;;;;;5.77;5.33;;;;;;;24.23;50.48;99357.28;5071463;28;20251;-72
2023/04/22 05:45:43;;;;;;;7.40;5.83;;;;;;;24.44;50.31;99352.41;5071930;28;20197;-72
2023/04/22 05:48:10;;;;;;;6.97;6.33;;;;;;;24.31;47.79;99355.84;5072352;28;20197;-72
2023/04/22 05:50:36;;;;;;;7.27;6.80;;;;;;;24.03;48.10;99362.09;5072032;28;20275;-74
2023/04/22 05:53:03;;;;;;;7.57;6.53;;;;;;;23.92;48.45;99355.97;5071909;28;20607;-70
2023/04/22 05:55:31;;;;;;;8.50;7.93;;;;;;;23.91;48.55;99354.34;5071758;28;20246;-71
2023/04/22 05:57:58;;;;;;;8.77;7.10;;;;;;;23.94;49.21;99351.03;5071869;28;20219;-71
2023/04/22 06:00:25;;;;;;;6.83;6.33;;;;;;;24.03;47.83;99357.50;5072179;28;20204;-69
2023/04/22 06:02:51;;;;;;;6.50;6.10;;;;;;;23.80;50.00;99351.97;5070815;28;20253;-69
2023/04/22 06:05:18;;;;;;;15.25;7.43;;;;;;;24.07;49.97;99347.69;5070800;28;20434;-71
2023/04/22 06:07:45;;;;;;;9.43;6.87;;;;;;;24.47;48.44;99340.97;5071014;28;20195;-72
2023/04/22 06:10:11;;;;;;;8.10;7.37;;;;;;;24.47;48.16;99358.06;5069534;28;20839;-72
2023/04/22 06:12:39;;;;;;;8.17;7.40;;;;;;;24.28;48.59;99346.34;5069824;28;20197;-72
2023/04/22 06:15:07;;;;;;;7.73;6.83;;;;;;;24.21;48.93;99351.31;5069955;28;20201;-73
2023/04/22 06:17:34;;;;;;;7.27;6.73;;;;;;;24.07;48.57;99358.53;5069628;28;20664;-73
2023/04/22 06:20:00;;;;;;;16.27;7.17;;;;;;;24.04;48.73;99345.53;5068744;28;20302;-73
2023/04/22 06:22:27;;;;;;;7.50;6.23;;;;;;;23.88;48.62;99360.31;5071199;28;20246;-74
2023/04/22 06:24:54;;;;;;;14.03;7.27;;;;;;;23.93;50.09;99352.13;5071716;28;20738;-73
2023/04/22 06:27:20;;;;;;;7.27;6.60;;;;;;;23.95;48.34;99354.56;5071370;28;20196;-73
2023/04/22 06:29:48;;;;;;;7.90;7.17;;;;;;;24.17;49.13;99352.16;5071672;28;20209;-72
2023/04/22 06:32:15;;;;;;;7.90;7.20;;;;;;;24.46;47.58;99353.75;5071051;28;20253;-71
2023/04/22 06:34:42;;;;;;;13.93;8.00;;;;;;;23.96;48.08;99357.00;5071693;28;20198;-72
2023/04/22 06:37:09;;;;;;;9.47;8.70;;;;;;;23.28;49.89;99352.66;5070761;28;20194;-72
2023/04/22 06:39:35;;;;;;;14.27;7.47;;;;;;;23.19;50.68;99340.75;5070570;28;20196;-72
2023/04/22 06:42:02;;;;;;;9.40;6.70;;;;;;;23.53;50.02;99344.31;5071603;28;20189;-71
2023/04/22 06:44:29;;;;;;;6.53;5.97;;;;;;;23.26;50.26;99344.00;5071631;28;20608;-74
2023/04/22 06:46:58;;;;;;;7.63;6.97;;;;;;;23.17;50.59;99334.81;5070445;28;20228;-73
2023/04/22 06:49:24;;;;;;;11.90;6.87;;;;;;;23.50;51.14;99325.94;5071418;28;20293;-72
2023/04/22 06:51:51;;;;;;;6.13;5.73;;;;;;;23.55;50.07;99338.63;5071638;28;20204;-71
2023/04/22 06:54:18;;;;;;;6.50;5.90;;;;;;;23.78;48.81;99344.13;5071079;28;20575;-71
2023/04/22 06:56:45;;;;;;;7.90;7.13;;;;;;;23.01;50.25;99338.72;5071538;28;20242;-71
2023/04/22 06:59:11;;;;;;;12.13;6.70;;;;;;;22.90;51.79;99339.03;5071449;28;20273;-71
2023/04/22 07:01:38;;;;;;;12.37;6.67;;;;;;;22.94;51.48;99331.97;5071010;28;20192;-72
2023/04/22 07:04:06;;;;;;;21.27;8.80;;;;;;;23.01;51.83;99336.00;5071250;28;20204;-72
2023/04/22 07:06:33;;;;;;;7.93;7.43;;;;;;;23.12;51.81;99340.25;5070953;28;20258;-72
2023/04/22 07:09:00;;;;;;;7.83;6.80;;;;;;;23.32;51.56;99345.56;5070983;28;20250;-72
2023/04/22 07:11:26;;;;;;;25.83;7.27;;;;;;;23.58;50.07;99343.47;5071443;28;20196;-72
2023/04/22 07:13:53;;;;;;;8.23;7.63;;;;;;;23.56;49.29;99351.09;5070527;28;20228;-73
2023/04/22 07:16:20;;;;;;;7.43;6.67;;;;;;;23.54;49.79;99353.28;5074553;28;20197;-72
2023/04/22 07:18:47;;;;;;;6.77;6.27;;;;;;;23.74;48.32;99353.94;5075185;28;20188;-73
2023/04/22 07:21:15;;;;;;;8.20;6.33;;;;;;;23.83;48.09;99357.66;5074120;28;21033;-72
2023/04/22 07:23:42;;;;;;;7.00;6.47;;;;;;;23.36;48.88;99352.03;5074708;28;20656;-72
2023/04/22 07:26:09;;;;;;;7.73;6.80;;;;;;;23.00;50.41;99331.69;5074682;28;20250;-73
2023/04/22 07:28:35;;;;;;;23.93;7.13;;;;;;;23.15;50.96;99345.13;5074846;28;20289;-72
2023/04/22 07:31:02;;;;;;;6.17;5.60;;;;;;;23.36;49.71;99352.03;5074603;28;20245;-72
2023/04/22 07:33:29;;;;;;;5.67;5.37;;;;;;;23.47;48.40;99359.03;5074511;28;20197;-73
2023/04/22 07:35:59;;;;;;;13.60;5.90;;;;;;;23.78;48.40;99354.97;5074729;28;20262;-73
2023/04/22 07:38:27;;;;;;;7.53;5.93;;;;;;;23.81;48.44;99353.59;5073854;28;20386;-72
2023/04/22 07:40:54;;;;;;;8.43;6.47;;;;;;;23.87;47.42;99353.25;5074212;28;20202;-72
2023/04/22 07:43:20;;;;;;;8.27;5.57;;;;;;;24.36;46.55;99356.59;5074531;28;20259;-72
2023/04/22 07:45:47;;;;;;;6.00;5.70;;;;;;;24.88;44.73;99353.78;5073367;28;20198;-70
2023/04/22 07:48:14;;;;;;;5.80;5.43;;;;;;;25.15;43.80;99357.78;5074403;28;20251;-71
2023/04/22 07:50:41;;;;;;;5.93;5.40;;;;;;;25.45;43.14;99358.16;5074251;28;20230;-71
2023/04/22 07:53:09;;;;;;;7.33;5.27;;;;;;;25.60;43.02;99352.47;5073903;28;20246;-72
2023/04/22 07:55:37;;;;;;;6.53;5.80;;;;;;;25.67;43.01;99354.81;5073299;28;20256;-72
2023/04/22 07:58:05;;;;;;;8.67;6.53;;;;;;;25.57;42.86;99352.25;5073965;28;20207;-72
2023/04/22 08:00:32;;;;;;;5.70;5.30;;;;;;;25.44;43.78;99350.31;5074147;28;20203;-72
2023/04/22 08:02:59;;;;;;;9.53;6.20;;;;;;;25.29;42.78;99342.38;5073795;28;20732;-72
2023/04/22 08:05:26;;;;;;;5.63;5.23;;;;;;;25.48;42.65;99340.44;5074106;28;20206;-73
2023/04/22 08:07:52;;;;;;;10.43;6.17;;;;;;;25.54;43.28;99345.50;5073677;28;20192;-72
2023/04/22 08:10:19;;;;;;;6.83;6.33;;;;;;;25.53;42.24;99353.97;5072714;28;20650;-72
2023/04/22 08:12:47;;;;;;;6.87;5.10;;;;;;;25.46;44.10;99345.34;5073330;28;20267;-72
2023/04/22 08:15:14;;;;;;;34.60;6.97;;;;;;;25.32;42.57;99352.66;5073623;28;20557;-71
2023/04/22 08:17:41;;;;;;;6.47;6.07;;;;;;;24.68;45.73;99337.78;5073477;28;20191;-71
2023/04/22 08:20:09;;;;;;;9.33;6.27;;;;;;;24.09;46.46;99336.53;5073932;28;20194;-72
2023/04/22 08:22:35;;;;;;;6.67;6.07;;;;;;;24.54;45.23;99331.38;5073375;28;20638;-72
2023/04/22 08:25:03;;;;;;;7.47;6.27;;;;;;;24.62;44.07;99330.75;5073442;28;20240;-71
2023/04/22 08:27:30;;;;;;;15.00;6.67;;;;;;;24.89;43.54;99335.56;5072388;28;20202;-71
2023/04/22 08:29:58;;;;;;;5.97;5.67;;;;;;;25.04;43.40;99328.00;5073374;28;20697;-72
2023/04/22 08:32:25;;;;;;;10.47;5.50;;;;;;;25.10;43.29;99322.53;5073197;28;20203;-71
2023/04/22 08:34:51;;;;;;;6.33;5.83;;;;;;;25.24;42.48;99326.94;5073720;28;20195;-72
2023/04/22 08:37:18;;;;;;;6.07;5.70;;;;;;;24.96;42.89;99317.78;5073578;28;20269;-72
2023/04/22 08:39:45;;;;;;;7.47;5.83;;;;;;;24.89;43.76;99317.38;5073625;28;20260;-72
2023/04/22 08:42:12;;;;;;;16.13;5.63;;;;;;;24.55;44.77;99308.53;5073373;28;20267;-71
2023/04/22 08:44:39;;;;;;;5.90;5.23;;;;;;;24.48;43.92;99310.81;5071994;28;20579;-71
2023/04/22 08:47:09;;;;;;;6.43;6.03;;;;;;;24.71;42.09;99315.44;5073288;28;20249;-71
2023/04/22 08:49:36;;;;;;;6.27;5.67;;;;;;;24.33;43.15;99308.28;5072761;28;20606;-70
2023/04/22 08:52:02;;;;;;;5.93;5.53;;;;;;;24.61;43.74;99309.31;5072521;28;20202;-72
2023/04/22 08:54:31;;;;;;;6.33;5.83;;;;;;;25.04;42.93;99303.53;5072657;28;20244;-71
2023/04/22 08:56:58;;;;;;;6.20;5.73;;;;;;;25.31;41.00;99300.16;5072662;28;20203;-71
2023/04/22 08:59:26;;;;;;;7.20;6.07;;;;;;;25.66;40.68;99298.78;5073062;28;20278;-71
2023/04/22 09:01:55;;;;;;;5.83;5.43;;;;;;;25.77;39.03;99295.59;5072547;28;20208;-71
2023/04/22 09:04:23;;;;;;;5.90;5.40;;;;;;;25.63;39.78;99272.19;5071997;28;20534;-71
2023/04/22 09:06:50;;;;;;;6.33;5.83;;;;;;;26.02;39.24;99288.91;5073058;28;20196;-71
2023/04/22 09:09:17;;;;;;;8.23;6.10;;;;;;;26.01;40.11;99284.56;5072596;28;20258;-72
2023/04/22 09:11:44;;;;;;;29.90;6.60;;;;;;;26.15;37.83;99285.38;5072423;28;20226;-71
2023/04/22 09:14:10;;;;;;;6.63;6.07;;;;;;;25.83;37.68;99269.06;5072501;28;20254;-71
2023/04/22 09:16:41;;;;;;;6.23;5.47;;;;;;;26.24;37.51;99278.91;5072764;28;20257;-72
2023/04/22 09:19:11;;;;;;;6.50;5.77;;;;;;;26.49;37.37;99274.84;5072593;28;20648;-72
2023/04/22 09:21:40;;;;;;;7.17;6.53;;;;;;;26.51;37.91;99272.66;5072027;28;20206;-71
2023/04/22 09:24:08;;;;;;;9.23;6.23;;;;;;;26.45;37.39;99279.31;5072460;28;20671;-72
2023/04/22 09:26:40;;;;;;;6.70;6.30;;;;;;;26.63;37.31;99265.59;5072584;28;20203;-71
2023/04/22 09:29:08;;;;;;;6.50;6.03;;;;;;;26.73;37.35;99257.19;5072269;28;20306;-71
2023/04/22 09:31:36;;;;;;;6.23;5.63;;;;;;;26.94;36.67;99254.78;5072311;28;20228;-72
2023/04/22 09:34:04;;;;;;;7.90;5.63;;;;;;;27.27;35.67;99254.28;5072721;28;20203;-72
2023/04/22 09:36:32;;;;;;;6.53;6.07;;;;;;;27.16;35.40;99235.72;5072163;28;20663;-72
2023/04/22 09:39:03;;;;;;;7.43;6.70;;;;;;;27.17;37.03;99235.44;5071336;28;20200;-71
2023/04/22 09:41:31;;;;;;;15.40;7.00;;;;;;;27.13;36.69;99230.88;5072477;28;20279;-72
2023/04/22 09:43:59;;;;;;;7.13;5.93;;;;;;;26.76;37.67;99179.44;5072344;28;20257;-71
2023/04/22 09:46:28;;;;;;;7.03;6.40;;;;;;;27.16;37.19;99230.28;5072293;28;20191;-72
2023/04/22 09:48:56;;;;;;;6.60;6.20;;;;;;;27.00;37.26;99226.31;5072176;28;20200;-72
2023/04/22 09:51:23;;;;;;;12.10;5.80;;;;;;;26.78;36.91;99212.66;5072212;28;20352;-71
2023/04/22 09:54:07;;;;;;;6.00;5.50;;;;;;;26.62;37.28;99216.84;5072182;28;20253;-71
2023/04/22 09:56:42;;;;;;;6.00;5.53;;;;;;;26.12;38.89;99210.53;5071245;28;20188;-71
2023/04/22 09:59:09;;;;;;;6.50;5.97;;;;;;;25.85;38.87;99193.38;5071463;28;20245;-71
2023/04/22 10:01:38;;;;;;;6.60;5.97;;;;;;;26.21;38.52;99199.75;5071233;28;20200;-71
2023/04/22 10:04:04;;;;;;;4.50;4.27;;;;;;;26.26;38.12;99214.06;5071999;28;20196;-71
2023/04/22 10:06:33;;;;;;;4.47;4.17;;;;;;;26.41;36.75;99210.22;5071447;28;20241;-72
2023/04/22 10:09:00;;;;;;;5.40;4.90;;;;;;;26.50;35.38;99206.44;5071400;28;20192;-72
2023/04/22 10:11:28;;;;;;;4.97;4.63;;;;;;;26.80;35.33;99215.88;5071707;28;20227;-71
2023/04/22 10:13:55;;;;;;;5.13;4.80;;;;;;;26.35;36.57;99200.53;5071430;28;20249;-70
2023/04/22 10:16:23;;;;;;;5.57;5.27;;;;;;;26.80;36.57;99215.88;5070830;28;20321;-71
2023/04/22 10:18:51;;;;;;;4.77;4.57;;;;;;;26.89;35.68;99214.03;5070460;28;20582;-71
2023/04/22 10:21:19;;;;;;;5.93;4.50;;;;;;;26.53;35.80;99167.69;5071357;28;20253;-71
2023/04/22 10:23:47;;;;;;;4.17;3.93;;;;;;;27.02;35.68;99213.16;5071664;28;20253;-71
2023/04/22 10:26:49;;;;;;;4.10;3.90;;;;;;;27.01;35.04;99214.28;5071242;28;20196;-70
2023/04/22 10:29:18;;;;;;;5.03;4.00;;;;;;;26.84;34.62;99206.78;5071317;28;20710;-71
2023/04/22 10:31:50;;;;;;;4.43;4.07;;;;;;;26.98;34.52;99201.25;5071347;28;20277;-70
2023/04/22 10:34:18;;;;;;;4.00;3.60;;;;;;;27.05;34.17;99212.53;5071562;28;20198;-70
2023/04/22 10:36:56;;;;;;;3.50;3.30;;;;;;;26.60;35.55;99210.88;5071154;28;20196;-70
2023/04/22 10:39:23;;;;;;;5.30;5.00;;;;;;;26.10;36.06;99207.34;5071728;28;20253;-71
2023/04/22 10:41:54;;;;;;;4.53;4.13;;;;;;;25.55;38.39;99207.59;5071412;28;20200;-71
2023/04/22 10:44:21;;;;;;;5.37;4.97;;;;;;;25.04;39.04;99200.25;5071602;28;20180;-71
2023/04/22 10:47:00;;;;;;;6.73;6.33;;;;;;;24.73;39.47;99199.13;5071301;28;20203;-70
2023/04/22 10:49:30;;;;;;;8.90;4.00;;;;;;;25.02;39.48;99200.88;5072070;28;20252;-70
2023/04/22 10:52:02;;;;;;;4.77;4.27;;;;;;;24.76;40.23;99201.25;5075602;28;20230;-70
2023/04/22 10:55:05;;;;;;;10.80;8.10;;;;;;;24.60;41.26;99213.47;5075531;28;20184;-71
2023/04/22 10:57:38;;;;;;;5.70;5.20;;;;;;;24.41;41.86;99207.16;5074525;28;20192;-71
2023/04/22 11:00:28;;;;;;;5.23;4.60;;;;;;;24.30;43.21;99208.41;5075260;28;20291;-71
2023/04/22 11:03:08;;;;;;;5.40;4.67;;;;;;;24.43;42.95;99204.16;5074533;28;20195;-75
2023/04/22 11:05:35;;;;;;;5.67;5.13;;;;;;;24.40;42.85;99204.75;5074284;28;20277;-72
2023/04/22 11:08:05;;;;;;;5.77;5.27;;;;;;;24.61;42.72;99212.34;5075408;28;20206;-71
2023/04/22 11:10:41;;;;;;;7.17;5.60;;;;;;;24.84;42.05;99214.16;5075287;28;20219;-71
2023/04/22 11:13:12;;;;;;;8.77;4.63;;;;;;;25.12;41.38;99206.94;5074892;28;20745;-72
2023/04/22 11:15:41;;;;;;;5.10;4.80;;;;;;;24.84;39.26;99211.44;5075380;28;20194;-71
2023/04/22 11:18:13;;;;;;;4.87;4.57;;;;;;;24.74;38.68;99221.66;5074052;28;20208;-71
2023/04/22 11:20:40;;;;;;;4.20;3.87;;;;;;;24.58;38.33;99234.63;5073513;28;20196;-70
2023/04/22 11:23:06;;;;;;;5.87;2.97;;;;;;;24.14;38.28;99258.56;5074425;28;20200;-72
2023/04/22 11:25:33;;;;;;;4.53;3.13;;;;;;;23.55;39.25;99263.50;5074452;28;20707;-71
2023/04/22 11:28:00;;;;;;;8.43;3.60;;;;;;;22.87;41.21;99242.88;5074745;28;20286;-71
2023/04/22 11:30:30;;;;;;;5.47;4.93;;;;;;;22.41;43.33;99254.25;5074511;28;20275;-72